createdAt,value
2022-10-23T00:01:36.359Z,100.00
2022-10-23T00:03:38.960Z,100.00
2022-10-23T00:05:41.740Z,100.00
2022-10-23T00:07:45.663Z,100.00
2022-10-23T00:09:48.249Z,100.00
2022-10-23T00:11:51.517Z,100.00
2022-10-23T00:13:56.673Z,100.00
2022-10-23T00:15:59.256Z,100.00
2022-10-23T00:18:01.882Z,100.00
2022-10-23T00:20:05.492Z,100.00
2022-10-23T00:22:08.588Z,100.00
2022-10-23T00:24:12.664Z,100.00
2022-10-23T00:26:15.792Z,100.00
2022-10-23T00:28:18.665Z,100.00
2022-10-23T00:30:21.289Z,100.00
2022-10-23T00:32:23.995Z,100.00
2022-10-23T00:34:26.681Z,100.00
2022-10-23T00:36:29.370Z,100.00
2022-10-23T00:38:31.953Z,100.00
2022-10-23T00:40:36.637Z,100.00
2022-10-23T00:42:39.352Z,100.00
2022-10-23T00:45:10.786Z,100.00
2022-10-23T00:47:14.485Z,100.00
2022-10-23T00:49:17.663Z,100.00
2022-10-23T00:51:20.643Z,100.00
2022-10-23T00:53:24.723Z,100.00
2022-10-23T00:55:28.898Z,100.00
2022-10-23T00:57:32.913Z,100.00
2022-10-23T00:59:35.538Z,100.00
2022-10-23T01:01:38.879Z,100.00
2022-10-23T01:03:41.794Z,100.00
2022-10-23T01:05:50.386Z,100.00
2022-10-23T01:07:57.779Z,100.00
2022-10-23T01:10:06.903Z,100.00
2022-10-23T01:12:16.348Z,100.00
2022-10-23T01:14:27.648Z,100.00
2022-10-23T01:16:40.999Z,100.00
2022-10-23T01:18:50.268Z,100.00
2022-10-23T01:21:00.145Z,100.00
2022-10-23T01:23:15.894Z,100.00
2022-10-23T01:25:28.909Z,100.00
2022-10-23T01:27:37.252Z,100.00
2022-10-23T01:29:44.463Z,100.00
2022-10-23T01:31:53.381Z,100.00
2022-10-23T01:34:00.901Z,100.00
2022-10-23T01:36:05.807Z,100.00
2022-10-23T01:38:14.005Z,100.00
2022-10-23T01:40:24.127Z,100.00
2022-10-23T01:42:30.598Z,100.00
2022-10-23T01:44:39.558Z,100.00
2022-10-23T01:46:44.789Z,100.00
2022-10-23T01:48:52.946Z,100.00
2022-10-23T01:50:58.959Z,100.00
2022-10-23T01:53:01.715Z,100.00
2022-10-23T01:55:05.241Z,100.00
2022-10-23T01:57:11.259Z,100.00
2022-10-23T01:59:17.441Z,100.00
2022-10-23T02:01:24.668Z,100.00
2022-10-23T02:03:30.683Z,100.00
2022-10-23T02:05:33.554Z,100.00
2022-10-23T02:07:36.754Z,100.00
2022-10-23T02:09:39.614Z,100.00
2022-10-23T02:11:53.569Z,100.00
2022-10-23T02:14:00.844Z,100.00
2022-10-23T02:16:08.677Z,100.00
2022-10-23T02:18:25.455Z,100.00
2022-10-23T02:20:35.584Z,100.00
2022-10-23T02:22:41.564Z,100.00
2022-10-23T02:24:49.771Z,100.00
2022-10-23T02:26:54.822Z,100.00
2022-10-23T02:29:01.580Z,100.00
2022-10-23T02:31:07.391Z,100.00
2022-10-23T02:33:13.240Z,100.00
2022-10-23T02:35:17.020Z,100.00
2022-10-23T02:39:25.398Z,100.00
2022-10-23T02:41:38.660Z,100.00
2022-10-23T02:43:49.656Z,100.00
2022-10-23T02:46:00.458Z,100.00
2022-10-23T02:48:12.520Z,100.00
2022-10-23T02:50:27.108Z,100.00
2022-10-23T02:52:39.588Z,100.00
2022-10-23T02:54:58.520Z,100.00
2022-10-23T02:57:07.097Z,100.00
2022-10-23T02:59:15.437Z,100.00
2022-10-23T03:01:23.568Z,100.00
2022-10-23T03:03:30.986Z,100.00
2022-10-23T03:05:39.632Z,100.00
2022-10-23T03:07:42.612Z,100.00
2022-10-23T03:09:47.433Z,100.00
2022-10-23T03:11:50.085Z,100.00
2022-10-23T03:13:53.260Z,100.00
2022-10-23T03:15:55.845Z,100.00
2022-10-23T03:17:58.443Z,100.00
2022-10-23T03:20:01.115Z,100.00
2022-10-23T03:22:05.047Z,100.00
2022-10-23T03:24:07.907Z,100.00
2022-10-23T03:26:10.600Z,100.00
2022-10-23T03:28:13.168Z,100.00
2022-10-23T03:30:15.808Z,100.00
2022-10-23T03:32:20.363Z,100.00
2022-10-23T03:34:23.043Z,100.00
2022-10-23T03:36:25.625Z,100.00
2022-10-23T03:38:29.674Z,100.00
2022-10-23T03:40:32.476Z,100.00
2022-10-23T03:42:35.110Z,100.00
2022-10-23T03:44:37.779Z,100.00
2022-10-23T03:46:40.710Z,100.00
2022-10-23T03:48:43.324Z,100.00
2022-10-23T03:50:45.913Z,100.00
2022-10-23T03:52:48.501Z,100.00
2022-10-23T03:54:52.463Z,100.00
2022-10-23T03:56:57.506Z,100.00
2022-10-23T03:59:00.606Z,100.00
2022-10-23T04:01:03.304Z,100.00
2022-10-23T04:03:05.907Z,100.00
2022-10-23T04:05:08.846Z,100.00
2022-10-23T04:07:11.501Z,100.00
2022-10-23T04:09:14.184Z,100.00
2022-10-23T04:11:18.249Z,100.00
2022-10-23T04:13:20.931Z,100.00
2022-10-23T04:15:23.555Z,100.00
2022-10-23T04:19:28.772Z,100.00
2022-10-23T04:21:31.373Z,100.00
2022-10-23T04:23:34.271Z,100.00
2022-10-23T04:25:36.887Z,100.00
2022-10-23T04:27:41.319Z,100.00
2022-10-23T04:29:44.319Z,100.00
2022-10-23T04:31:46.905Z,100.00
2022-10-23T04:33:49.568Z,100.00
2022-10-23T04:35:52.191Z,100.00
2022-10-23T04:37:54.772Z,100.00
2022-10-23T04:39:57.333Z,100.00
2022-10-23T04:41:59.937Z,100.00
2022-10-23T04:44:03.863Z,100.00
2022-10-23T04:46:07.674Z,100.00
2022-10-23T04:48:10.337Z,100.00
2022-10-23T04:50:12.948Z,100.00
2022-10-23T04:52:15.994Z,100.00
2022-10-23T04:54:18.606Z,100.00
2022-10-23T04:56:21.256Z,100.00
2022-10-23T04:58:25.830Z,100.00
2022-10-23T05:00:29.892Z,100.00
2022-10-23T05:02:32.524Z,100.00
2022-10-23T05:04:35.107Z,100.00
2022-10-23T05:06:37.755Z,100.00
2022-10-23T05:08:40.346Z,100.00
2022-10-23T05:10:42.919Z,100.00
2022-10-23T05:12:45.489Z,100.00
2022-10-23T05:14:48.064Z,100.00
2022-10-23T05:16:56.510Z,100.00
2022-10-23T05:19:00.835Z,100.00
2022-10-23T05:21:07.583Z,100.00
2022-10-23T05:23:12.751Z,100.00
2022-10-23T05:25:15.325Z,100.00
2022-10-23T05:27:17.935Z,100.00
2022-10-23T05:29:21.477Z,100.00
2022-10-23T05:31:26.195Z,100.00
2022-10-23T05:33:32.014Z,100.00
2022-10-23T05:35:34.944Z,100.00
2022-10-23T05:37:40.879Z,100.00
2022-10-23T05:39:44.048Z,100.00
2022-10-23T05:41:46.641Z,100.00
2022-10-23T05:43:49.253Z,100.00
2022-10-23T05:45:51.799Z,100.00
2022-10-23T05:47:56.559Z,100.00
2022-10-23T05:50:02.678Z,100.00
2022-10-23T05:52:05.394Z,100.00
2022-10-23T05:54:08.896Z,100.00
2022-10-23T05:56:11.551Z,100.00
2022-10-23T05:58:14.149Z,100.00
2022-10-23T06:00:16.822Z,100.00
2022-10-23T06:02:19.492Z,100.00
2022-10-23T06:04:22.130Z,100.00
2022-10-23T06:06:26.156Z,100.00
2022-10-23T06:08:28.779Z,100.00
2022-10-23T06:10:32.508Z,100.00
2022-10-23T06:12:35.121Z,100.00
2022-10-23T06:14:37.709Z,100.00
2022-10-23T06:16:40.364Z,100.00
2022-10-23T06:18:43.681Z,100.00
2022-10-23T06:20:46.309Z,100.00
2022-10-23T06:22:50.373Z,100.00
2022-10-23T06:24:52.985Z,100.00
2022-10-23T06:26:55.604Z,100.00
2022-10-23T06:28:58.572Z,100.00
2022-10-23T06:31:01.214Z,100.00
2022-10-23T06:33:05.903Z,100.00
2022-10-23T06:35:10.107Z,100.00
2022-10-23T06:37:12.734Z,100.00
2022-10-23T06:39:16.690Z,100.00
2022-10-23T06:41:21.033Z,100.00
2022-10-23T06:43:23.802Z,100.00
2022-10-23T06:45:26.411Z,100.00
2022-10-23T06:47:29.012Z,100.00
2022-10-23T06:49:31.620Z,100.00
2022-10-23T06:51:34.256Z,100.00
2022-10-23T06:53:38.838Z,100.00
2022-10-23T06:55:42.777Z,100.00
2022-10-23T06:57:46.149Z,100.00
2022-10-23T06:59:49.016Z,100.00
2022-10-23T07:01:51.861Z,100.00
2022-10-23T07:03:54.577Z,100.00
2022-10-23T07:05:57.199Z,100.00
2022-10-23T07:07:59.779Z,100.00
2022-10-23T07:10:02.509Z,100.00
2022-10-23T07:12:06.925Z,100.00
2022-10-23T07:14:09.601Z,100.00
2022-10-23T07:16:14.043Z,100.00
2022-10-23T07:18:16.928Z,100.00
2022-10-23T07:20:19.652Z,100.00
2022-10-23T07:22:22.235Z,100.00
2022-10-23T07:24:24.878Z,100.00
2022-10-23T07:26:28.189Z,100.00
2022-10-23T07:28:32.272Z,100.00
2022-10-23T07:30:34.929Z,100.00
2022-10-23T07:32:37.532Z,100.00
2022-10-23T07:34:40.360Z,100.00
2022-10-23T07:36:42.983Z,100.00
2022-10-23T07:38:46.117Z,100.00
2022-10-23T07:40:48.751Z,100.00
2022-10-23T07:42:51.370Z,100.00
2022-10-23T07:44:55.302Z,100.00
2022-10-23T07:46:57.903Z,100.00
2022-10-23T07:49:00.623Z,100.00
2022-10-23T07:51:08.224Z,100.00
2022-10-23T07:53:17.746Z,100.00
2022-10-23T07:55:20.349Z,100.00
2022-10-23T07:57:23.564Z,100.00
2022-10-23T07:59:26.484Z,100.00
2022-10-23T08:01:33.461Z,100.00
2022-10-23T08:03:36.236Z,100.00
2022-10-23T08:05:38.846Z,100.00
2022-10-23T08:07:42.044Z,100.00
2022-10-23T08:09:44.753Z,100.00
2022-10-23T08:11:47.761Z,100.00
2022-10-23T08:13:50.424Z,100.00
2022-10-23T08:15:53.804Z,100.00
2022-10-23T08:17:57.754Z,100.00
2022-10-23T08:20:00.338Z,100.00
2022-10-23T08:22:03.830Z,100.00
2022-10-23T08:24:07.323Z,100.00
2022-10-23T08:26:10.263Z,100.00
2022-10-23T08:28:12.939Z,97.38
2022-10-23T08:30:16.080Z,95.51
2022-10-23T08:32:18.663Z,96.08
2022-10-23T08:34:22.955Z,97.58
2022-10-23T08:36:27.995Z,95.45
2022-10-23T08:38:30.626Z,95.64
2022-10-23T08:40:34.136Z,96.60
2022-10-23T08:42:40.536Z,97.00
2022-10-23T08:44:48.791Z,95.36
2022-10-23T08:46:59.200Z,96.73
2022-10-23T08:49:18.496Z,98.23
2022-10-23T08:51:26.410Z,96.87
2022-10-23T08:53:37.430Z,95.79
2022-10-23T08:55:45.604Z,93.56
2022-10-23T08:57:56.309Z,90.54
2022-10-23T09:00:01.297Z,89.26
2022-10-23T09:02:12.148Z,86.32
2022-10-23T09:04:16.594Z,84.86
2022-10-23T09:06:31.952Z,83.17
2022-10-23T09:08:43.752Z,78.09
2022-10-23T09:10:57.821Z,76.12
2022-10-23T09:13:11.994Z,77.70
2022-10-23T09:15:22.204Z,76.23
2022-10-23T09:17:27.425Z,70.61
2022-10-23T09:19:31.317Z,70.99
2022-10-23T09:21:36.885Z,76.28
2022-10-23T09:23:39.562Z,75.09
2022-10-23T09:25:44.125Z,74.09
2022-10-23T09:27:50.609Z,74.39
2022-10-23T09:29:59.065Z,74.14
2022-10-23T09:32:02.882Z,71.74
2022-10-23T09:34:09.638Z,76.40
2022-10-23T09:36:23.445Z,77.48
2022-10-23T09:38:33.092Z,75.96
2022-10-23T09:40:41.598Z,74.47
2022-10-23T09:42:55.986Z,69.02
2022-10-23T09:44:58.616Z,68.75
2022-10-23T09:47:11.116Z,71.62
2022-10-23T09:49:19.065Z,70.63
2022-10-23T09:51:22.583Z,72.01
2022-10-23T09:53:40.807Z,72.67
2022-10-23T09:55:44.502Z,67.81
2022-10-23T09:57:48.430Z,71.55
2022-10-23T09:59:53.288Z,66.32
2022-10-23T10:01:58.320Z,70.77
2022-10-23T10:04:01.189Z,72.07
2022-10-23T10:06:05.341Z,74.21
2022-10-23T10:08:18.859Z,75.35
2022-10-23T10:10:24.084Z,72.88
2022-10-23T10:12:46.751Z,76.17
2022-10-23T10:14:56.722Z,77.07
2022-10-23T10:17:04.540Z,75.34
2022-10-23T10:19:19.195Z,76.36
2022-10-23T10:21:26.136Z,75.46
2022-10-23T10:23:35.878Z,78.27
2022-10-23T10:25:52.147Z,77.55
2022-10-23T10:28:07.677Z,75.94
2022-10-23T10:30:15.300Z,74.00
2022-10-23T10:32:32.387Z,75.25
2022-10-23T10:34:42.868Z,75.72
2022-10-23T10:36:50.748Z,76.60
2022-10-23T10:38:58.306Z,78.51
2022-10-23T10:41:23.173Z,78.23
2022-10-23T10:43:37.839Z,77.29
2022-10-23T10:45:45.098Z,76.13
2022-10-23T10:48:02.238Z,77.94
2022-10-23T10:50:17.077Z,81.27
2022-10-23T10:52:26.079Z,80.71
2022-10-23T10:54:43.247Z,82.00
2022-10-23T10:56:48.893Z,83.06
2022-10-23T10:58:55.537Z,83.81
2022-10-23T11:01:02.451Z,83.59
2022-10-23T11:03:15.816Z,82.68
2022-10-23T11:05:31.291Z,82.37
2022-10-23T11:07:43.052Z,81.26
2022-10-23T11:09:47.288Z,78.89
2022-10-23T11:11:51.452Z,79.61
2022-10-23T11:13:54.385Z,79.51
2022-10-23T11:16:01.314Z,78.23
2022-10-23T11:18:13.992Z,78.38
2022-10-23T11:20:32.578Z,78.23
2022-10-23T11:22:38.792Z,79.82
2022-10-23T11:25:17.269Z,79.19
2022-10-23T11:27:58.110Z,78.74
2022-10-23T11:30:18.983Z,79.57
2022-10-23T11:32:44.546Z,78.59
2022-10-23T11:34:58.906Z,80.58
2022-10-23T11:37:03.766Z,83.52
2022-10-23T11:39:18.527Z,83.88
2022-10-23T11:41:26.563Z,83.69
2022-10-23T11:43:31.651Z,83.38
2022-10-23T11:45:37.967Z,84.58
2022-10-23T11:47:43.701Z,85.45
2022-10-23T11:49:46.392Z,83.58
2022-10-23T11:51:59.839Z,85.72
2022-10-23T11:54:27.055Z,86.26
2022-10-23T11:56:31.186Z,86.29
2022-10-23T11:58:46.749Z,84.66
2022-10-23T12:01:01.001Z,84.41
2022-10-23T12:03:04.052Z,83.21
2022-10-23T12:05:09.693Z,81.83
2022-10-23T12:07:22.303Z,83.11
2022-10-23T12:09:29.041Z,81.45
2022-10-23T12:11:44.211Z,82.41
2022-10-23T12:13:47.525Z,81.26
2022-10-23T12:15:57.170Z,80.83
2022-10-23T12:18:15.501Z,79.60
2022-10-23T12:20:28.046Z,78.53
2022-10-23T12:22:39.656Z,81.13
2022-10-23T12:25:00.837Z,81.11
2022-10-23T12:27:15.305Z,82.03
2022-10-23T12:29:32.529Z,82.23
2022-10-23T12:31:48.359Z,82.70
2022-10-23T12:34:02.362Z,80.41
2022-10-23T12:36:36.203Z,80.42
2022-10-23T12:38:45.098Z,77.01
2022-10-23T12:40:52.587Z,78.10
2022-10-23T12:42:57.334Z,76.95
2022-10-23T12:45:01.324Z,73.06
2022-10-23T12:47:05.099Z,74.17
2022-10-23T12:49:16.887Z,72.95
2022-10-23T12:51:24.555Z,75.02
2022-10-23T12:53:27.428Z,74.93
2022-10-23T12:55:35.814Z,70.09
2022-10-23T12:57:43.247Z,65.50
2022-10-23T12:59:46.354Z,66.86
2022-10-23T13:01:52.577Z,68.63
2022-10-23T13:04:00.042Z,68.30
2022-10-23T13:06:04.775Z,67.71
2022-10-23T13:08:07.724Z,67.44
2022-10-23T13:10:15.408Z,67.90
2022-10-23T13:12:24.305Z,67.54
2022-10-23T13:14:32.914Z,62.67
2022-10-23T13:16:35.588Z,63.23
2022-10-23T13:18:42.217Z,61.96
2022-10-23T13:20:57.920Z,61.37
2022-10-23T13:23:10.407Z,63.74
2022-10-23T13:25:24.724Z,62.82
2022-10-23T13:27:33.716Z,61.04
2022-10-23T13:29:36.413Z,64.69
2022-10-23T13:31:39.083Z,67.50
2022-10-23T13:33:43.282Z,70.06
2022-10-23T13:35:56.143Z,67.00
2022-10-23T13:38:08.803Z,66.21
2022-10-23T13:40:23.372Z,67.79
2022-10-23T13:42:26.017Z,69.85
2022-10-23T13:44:28.952Z,70.57
2022-10-23T13:46:31.709Z,72.68
2022-10-23T13:48:34.319Z,73.38
2022-10-23T13:50:37.110Z,73.19
2022-10-23T13:52:39.679Z,72.96
2022-10-23T13:54:43.783Z,72.26
2022-10-23T13:56:47.360Z,73.11
2022-10-23T13:58:50.434Z,75.61
2022-10-23T14:00:53.955Z,77.02
2022-10-23T14:02:56.576Z,77.27
2022-10-23T14:04:59.241Z,77.55
2022-10-23T14:07:01.865Z,78.69
2022-10-23T14:09:05.951Z,80.52
2022-10-23T14:11:10.472Z,79.91
2022-10-23T14:13:13.154Z,81.04
2022-10-23T14:15:15.921Z,81.40
2022-10-23T14:17:18.531Z,81.49
2022-10-23T14:19:21.141Z,83.19
2022-10-23T14:21:25.250Z,85.97
2022-10-23T14:23:27.858Z,83.88
2022-10-23T14:25:30.466Z,84.69
2022-10-23T14:27:34.557Z,84.81
2022-10-23T14:29:37.125Z,83.78
2022-10-23T14:31:39.738Z,82.22
2022-10-23T14:33:42.799Z,81.23
2022-10-23T14:35:45.366Z,83.22
2022-10-23T14:37:48.075Z,86.08
2022-10-23T14:39:50.767Z,87.75
2022-10-23T14:41:53.436Z,87.98
2022-10-23T14:43:57.388Z,89.09
2022-10-23T14:46:09.393Z,90.42
2022-10-23T14:48:12.042Z,90.79
2022-10-23T14:50:15.119Z,91.96
2022-10-23T14:52:17.799Z,90.30
2022-10-23T14:54:20.464Z,90.85
2022-10-23T14:56:23.900Z,90.74
2022-10-23T14:58:26.490Z,89.58
2022-10-23T15:00:30.808Z,90.11
2022-10-23T15:02:33.471Z,89.15
2022-10-23T15:04:36.068Z,91.11
2022-10-23T15:06:38.802Z,93.52
2022-10-23T15:08:41.397Z,92.38
2022-10-23T15:10:44.015Z,89.36
2022-10-23T15:12:46.929Z,89.59
2022-10-23T15:14:49.649Z,86.25
2022-10-23T15:16:53.685Z,86.74
2022-10-23T15:18:56.299Z,86.94
2022-10-23T15:20:59.327Z,87.08
2022-10-23T15:23:02.921Z,87.23
2022-10-23T15:25:06.521Z,87.31
2022-10-23T15:29:17.158Z,87.61
2022-10-23T15:31:42.717Z,87.60
2022-10-23T15:33:46.666Z,87.27
2022-10-23T15:35:49.286Z,86.88
2022-10-23T15:37:51.877Z,88.70
2022-10-23T15:39:57.180Z,87.98
2022-10-23T15:42:04.125Z,88.65
2022-10-23T15:44:08.424Z,90.74
2022-10-23T15:46:11.017Z,88.36
2022-10-23T15:48:13.775Z,88.56
2022-10-23T15:50:18.286Z,88.78
2022-10-23T15:52:20.889Z,89.10
2022-10-23T15:54:26.041Z,91.30
2022-10-23T15:56:30.859Z,88.93
2022-10-23T15:58:33.468Z,88.78
2022-10-23T16:00:36.609Z,89.72
2022-10-23T16:02:39.319Z,88.97
2022-10-23T16:04:41.942Z,90.59
2022-10-23T16:06:46.200Z,88.81
2022-10-23T16:08:48.969Z,91.75
2022-10-23T16:10:51.590Z,90.06
2022-10-23T16:12:54.163Z,89.89
2022-10-23T16:14:56.723Z,90.88
2022-10-23T16:16:59.338Z,92.00
2022-10-23T16:19:03.436Z,91.15
2022-10-23T16:21:06.402Z,92.12
2022-10-23T16:23:10.376Z,92.55
2022-10-23T16:25:13.072Z,93.25
2022-10-23T16:27:15.720Z,93.29
2022-10-23T16:29:18.476Z,93.94
2022-10-23T16:31:23.148Z,94.72
2022-10-23T16:33:25.858Z,95.02
2022-10-23T16:35:30.982Z,96.51
2022-10-23T16:37:33.986Z,96.69
2022-10-23T16:39:38.037Z,97.53
2022-10-23T16:41:40.673Z,97.88
2022-10-23T16:43:43.285Z,97.82
2022-10-23T16:45:46.014Z,97.39
2022-10-23T16:47:48.615Z,98.30
2022-10-23T16:49:51.237Z,98.41
2022-10-23T16:51:53.912Z,98.74
2022-10-23T16:53:56.690Z,96.75
2022-10-23T16:56:00.655Z,96.60
2022-10-23T16:58:03.655Z,95.95
2022-10-23T17:00:07.784Z,95.09
2022-10-23T17:02:11.144Z,93.79
2022-10-23T17:04:13.836Z,94.43
2022-10-23T17:06:18.992Z,94.19
2022-10-23T17:08:21.592Z,93.79
2022-10-23T17:10:24.413Z,92.59
2022-10-23T17:12:28.472Z,90.98
2022-10-23T17:14:31.232Z,89.53
2022-10-23T17:16:36.549Z,88.43
2022-10-23T17:18:43.668Z,88.68
2022-10-23T17:20:46.738Z,88.16
2022-10-23T17:22:49.374Z,88.25
2022-10-23T17:24:53.096Z,88.66
2022-10-23T17:26:56.869Z,89.46
2022-10-23T17:29:02.649Z,89.69
2022-10-23T17:31:05.407Z,89.58
2022-10-23T17:33:08.023Z,89.01
2022-10-23T17:35:11.233Z,89.36
2022-10-23T17:37:14.389Z,90.52
2022-10-23T17:39:20.331Z,91.84
2022-10-23T17:41:25.381Z,93.87
2022-10-23T17:43:27.977Z,94.93
2022-10-23T17:45:35.652Z,98.27
2022-10-23T17:47:40.063Z,100.00
2022-10-23T17:49:45.394Z,97.51
2022-10-23T17:51:52.634Z,94.53
2022-10-23T17:53:56.220Z,93.70
2022-10-23T17:56:01.726Z,91.34
2022-10-23T17:58:04.330Z,91.34
2022-10-23T18:00:07.790Z,92.36
2022-10-23T18:02:13.255Z,94.16
2022-10-23T18:04:18.193Z,90.39
2022-10-23T18:06:24.620Z,90.30
2022-10-23T18:08:30.006Z,89.53
2022-10-23T18:10:35.909Z,94.42
2022-10-23T18:12:38.518Z,96.54
2022-10-23T18:14:41.295Z,93.75
2022-10-23T18:16:45.447Z,92.57
2022-10-23T18:18:51.755Z,89.72
2022-10-23T18:20:54.419Z,88.76
2022-10-23T18:22:57.008Z,90.56
2022-10-23T18:24:59.962Z,92.52
2022-10-23T18:27:02.703Z,94.36
2022-10-23T18:29:07.591Z,96.24
2022-10-23T18:31:10.670Z,96.39
2022-10-23T18:33:15.035Z,96.58
2022-10-23T18:35:19.332Z,96.51
2022-10-23T18:37:21.963Z,98.27
2022-10-23T18:39:25.947Z,97.86
2022-10-23T18:41:28.596Z,97.48
2022-10-23T18:43:43.141Z,94.84
2022-10-23T18:45:46.580Z,96.06
2022-10-23T18:47:49.565Z,97.84
2022-10-23T18:49:52.185Z,97.67
2022-10-23T18:51:58.181Z,96.26
2022-10-23T18:54:02.578Z,98.89
2022-10-23T18:56:07.689Z,100.00
2022-10-23T18:58:10.256Z,99.21
2022-10-23T19:00:14.290Z,98.88
2022-10-23T19:02:17.499Z,97.23
2022-10-23T19:04:20.473Z,95.20
2022-10-23T19:06:23.431Z,96.46
2022-10-23T19:08:27.388Z,95.64
2022-10-23T19:10:32.096Z,97.60
2022-10-23T19:12:34.759Z,94.82
2022-10-23T19:14:37.442Z,90.78
2022-10-23T19:16:45.273Z,94.36
2022-10-23T19:18:51.445Z,94.11
2022-10-23T19:20:54.012Z,92.92
2022-10-23T19:22:57.517Z,93.40
2022-10-23T19:25:10.229Z,91.70
2022-10-23T19:27:12.889Z,88.13
2022-10-23T19:29:19.481Z,86.02
2022-10-23T19:31:23.346Z,83.59
2022-10-23T19:33:25.923Z,81.31
2022-10-23T19:35:29.109Z,81.11
2022-10-23T19:37:31.705Z,82.98
2022-10-23T19:39:34.371Z,85.02
2022-10-23T19:41:38.363Z,85.11
2022-10-23T19:43:42.138Z,85.19
2022-10-23T19:45:44.812Z,82.41
2022-10-23T19:47:47.795Z,79.51
2022-10-23T19:49:51.718Z,78.59
2022-10-23T19:51:54.338Z,76.75
2022-10-23T19:53:57.282Z,76.07
2022-10-23T19:56:03.872Z,75.80
2022-10-23T19:58:07.852Z,76.51
2022-10-23T20:00:11.735Z,74.12
2022-10-23T20:02:14.569Z,73.39
2022-10-23T20:04:18.115Z,73.30
2022-10-23T20:06:22.641Z,72.20
2022-10-23T20:08:25.211Z,72.90
2022-10-23T20:10:28.255Z,72.62
2022-10-23T20:12:30.860Z,72.20
2022-10-23T20:14:35.092Z,73.00
2022-10-23T20:16:39.345Z,72.23
2022-10-23T20:18:42.000Z,72.00
2022-10-23T20:20:44.579Z,71.47
2022-10-23T20:22:48.500Z,71.63
2022-10-23T20:24:53.694Z,71.16
2022-10-23T20:26:57.129Z,70.01
2022-10-23T20:29:00.005Z,69.75
2022-10-23T20:31:08.361Z,70.21
2022-10-23T20:33:10.936Z,69.82
2022-10-23T20:35:13.859Z,70.63
2022-10-23T20:37:16.453Z,69.88
2022-10-23T20:39:21.897Z,70.17
2022-10-23T20:41:27.061Z,70.17
2022-10-23T20:43:29.646Z,68.96
2022-10-23T20:45:32.239Z,70.44
2022-10-23T20:47:36.225Z,69.08
2022-10-23T20:49:38.850Z,69.65
2022-10-23T20:51:41.991Z,69.94
2022-10-23T20:53:45.915Z,69.88
2022-10-23T20:55:48.703Z,69.74
2022-10-23T20:57:51.667Z,70.47
2022-10-23T20:59:54.466Z,70.35
2022-10-23T21:01:57.525Z,71.16
2022-10-23T21:04:03.182Z,70.79
2022-10-23T21:06:08.060Z,71.00
2022-10-23T21:08:10.918Z,71.00
2022-10-23T21:10:13.620Z,70.57
2022-10-23T21:12:16.297Z,70.59
2022-10-23T21:14:18.937Z,71.32
2022-10-23T21:16:27.773Z,70.73
2022-10-23T21:18:45.499Z,70.75
2022-10-23T21:20:50.200Z,71.02
2022-10-23T21:22:55.351Z,70.24
2022-10-23T21:24:59.961Z,69.40
2022-10-23T21:27:03.951Z,69.15
2022-10-23T21:29:17.994Z,68.50
2022-10-23T21:31:25.832Z,68.80
2022-10-23T21:33:28.889Z,69.35
2022-10-23T21:35:32.070Z,69.70
2022-10-23T21:37:36.041Z,68.49
2022-10-23T21:39:38.656Z,68.68
2022-10-23T21:41:41.240Z,68.46
2022-10-23T21:43:43.886Z,68.22
2022-10-23T21:45:46.479Z,68.15
2022-10-23T21:47:49.103Z,68.39
2022-10-23T21:49:52.301Z,68.20
2022-10-23T21:51:55.397Z,68.18
2022-10-23T21:53:59.807Z,68.77
2022-10-23T21:56:05.508Z,67.76
2022-10-23T21:58:10.220Z,68.35
2022-10-23T22:00:16.093Z,68.25
2022-10-23T22:02:18.819Z,68.46
2022-10-23T22:04:22.049Z,68.40
2022-10-23T22:06:27.192Z,68.38
2022-10-23T22:08:30.449Z,68.71
2022-10-23T22:10:35.060Z,69.39
2022-10-23T22:12:37.663Z,68.82
2022-10-23T22:14:40.438Z,67.82
2022-10-23T22:16:43.177Z,68.40
2022-10-23T22:18:46.005Z,68.75
2022-10-23T22:20:48.729Z,68.94
2022-10-23T22:22:51.338Z,68.44
2022-10-23T22:24:53.932Z,68.28
2022-10-23T22:26:58.231Z,68.58
2022-10-23T22:29:03.132Z,68.21
2022-10-23T22:31:06.044Z,68.33
2022-10-23T22:33:08.601Z,69.15
2022-10-23T22:35:11.154Z,68.82
2022-10-23T22:37:13.937Z,69.11
2022-10-23T22:39:16.828Z,68.91
2022-10-23T22:41:19.553Z,69.69
2022-10-23T22:43:23.500Z,69.32
2022-10-23T22:45:26.076Z,69.33
2022-10-23T22:47:30.301Z,69.51
2022-10-23T22:49:32.888Z,69.07
2022-10-23T22:51:35.588Z,69.44
2022-10-23T22:53:38.532Z,69.58
2022-10-23T22:55:42.721Z,69.82
2022-10-23T22:57:45.677Z,70.44
2022-10-23T22:59:49.867Z,70.31
2022-10-23T23:01:52.857Z,70.31
2022-10-23T23:03:58.212Z,70.56
2022-10-23T23:06:05.057Z,70.85
2022-10-23T23:08:07.649Z,70.34
2022-10-23T23:10:10.801Z,70.54
2022-10-23T23:12:14.619Z,70.86
2022-10-23T23:14:20.316Z,70.08
2022-10-23T23:16:29.179Z,70.11
2022-10-23T23:18:32.624Z,70.47
2022-10-23T23:20:35.722Z,70.70
2022-10-23T23:22:38.360Z,71.17
2022-10-23T23:24:40.967Z,71.64
2022-10-23T23:26:43.522Z,70.46
2022-10-23T23:28:46.474Z,70.55
2022-10-23T23:30:49.981Z,70.56
2022-10-23T23:32:54.731Z,71.35
2022-10-23T23:34:59.548Z,71.75
2022-10-23T23:37:02.146Z,71.10
2022-10-23T23:39:05.544Z,70.19
2022-10-23T23:41:12.198Z,70.33
2022-10-23T23:43:14.632Z,70.41
2022-10-23T23:45:17.400Z,70.62
2022-10-23T23:47:20.091Z,70.78
2022-10-23T23:49:24.524Z,71.39
2022-10-23T23:51:27.474Z,70.80
2022-10-23T23:53:30.403Z,70.91
2022-10-23T23:55:33.109Z,71.57
2022-10-23T23:57:35.742Z,71.06
2022-10-23T23:59:38.461Z,71.44
